Time;durP1;ratioP1;P1;durP2;ratioP2;P2;SDS_P1;SDS_P2;PMS_P1;PMS_P2;Temp;Humidity;BMP_temperature;BMP_pressure;BME280_temperature;BME280_humidity;BME280_pressure;Samples;Min_cycle;Max_cycle;Signal;HPM_P1;HPM_P2
2022/10/22 00:00:12;;;;;;;0.20;0.20;;;12.10;99.90;;;;;;4985633;28;20387;-77
2022/10/22 00:02:38;;;;;;;0.20;0.20;;;12.20;99.90;;;;;;4970538;28;20030;-78
2022/10/22 00:05:05;;;;;;;0.40;0.40;;;12.20;99.90;;;;;;4970713;28;20105;-77
2022/10/22 00:07:31;;;;;;;0.70;0.22;;;12.20;99.90;;;;;;4970715;28;20031;-77
2022/10/22 00:09:57;;;;;;;0.20;0.20;;;;;;;;;;4969721;28;20038;-77
2022/10/22 00:12:23;;;;;;;1.75;0.55;;;12.20;99.90;;;;;;4969741;28;20062;-77
2022/10/22 00:14:49;;;;;;;0.32;0.32;;;12.20;99.90;;;;;;4971765;28;20030;-78
2022/10/22 00:17:15;;;;;;;0.28;0.28;;;12.20;99.90;;;;;;4970755;28;20177;-76
2022/10/22 00:19:41;;;;;;;0.75;0.30;;;12.20;99.90;;;;;;4971235;28;20054;-76
2022/10/22 00:22:09;;;;;;;0.52;0.30;;;12.20;99.90;;;;;;4969980;28;20023;-76
2022/10/22 00:24:36;;;;;;;0.43;0.43;;;12.10;99.90;;;;;;4971924;28;20023;-77
2022/10/22 00:27:03;;;;;;;0.43;0.30;;;12.20;99.90;;;;;;4973044;28;20134;-77
2022/10/22 00:29:29;;;;;;;0.20;0.20;;;;;;;;;;4973111;28;20039;-76
2022/10/22 00:31:55;;;;;;;0.38;0.30;;;;;;;;;;4973273;28;20026;-76
2022/10/22 00:34:21;;;;;;;0.60;0.32;;;12.10;99.90;;;;;;4973109;28;20031;-76
2022/10/22 00:36:48;;;;;;;0.70;0.43;;;12.10;99.90;;;;;;4971530;28;20044;-76
2022/10/22 00:39:16;;;;;;;0.20;0.20;;;12.00;99.90;;;;;;4972979;28;20023;-76
2022/10/22 00:41:43;;;;;;;0.30;0.20;;;12.10;99.90;;;;;;4972935;28;20296;-77
2022/10/22 00:44:47;;;;;;;1.15;0.47;;;12.10;99.90;;;;;;4972667;28;20034;-77
2022/10/22 00:47:14;;;;;;;0.52;0.45;;;12.10;99.90;;;;;;4972345;28;20488;-77
2022/10/22 00:49:41;;;;;;;0.22;0.22;;;12.10;99.90;;;;;;4972774;28;20062;-76
2022/10/22 00:52:10;;;;;;;0.75;0.30;;;12.10;99.90;;;;;;4972504;28;20027;-77
2022/10/22 00:54:37;;;;;;;0.65;0.30;;;12.00;99.90;;;;;;4972576;28;20027;-76
2022/10/22 00:57:03;;;;;;;0.30;0.30;;;12.00;99.90;;;;;;4987376;28;20038;-76
2022/10/22 00:59:29;;;;;;;0.20;0.20;;;12.00;99.90;;;;;;4972311;28;20383;-76
2022/10/22 01:01:54;;;;;;;0.60;0.45;;;12.00;99.90;;;;;;4972457;28;20023;-76
2022/10/22 01:04:20;;;;;;;0.30;0.30;;;12.00;99.90;;;;;;4972930;28;20293;-77
2022/10/22 01:06:47;;;;;;;3.13;0.68;;;12.10;99.90;;;;;;4972481;28;20019;-76
2022/10/22 01:09:24;;;;;;;1.45;0.90;;;12.10;99.90;;;;;;4972199;28;20542;-76
2022/10/22 01:11:58;;;;;;;1.70;0.65;;;12.10;99.90;;;;;;4972262;28;20094;-76
2022/10/22 01:14:40;;;;;;;1.40;0.85;;;12.10;99.90;;;;;;4972484;28;20058;-77
2022/10/22 01:17:22;;;;;;;0.88;0.75;;;12.10;99.90;;;;;;4971824;28;20018;-75
2022/10/22 01:19:51;;;;;;;1.10;0.80;;;12.30;99.90;;;;;;4972182;28;20027;-76
2022/10/22 01:22:32;;;;;;;0.95;0.95;;;12.30;99.90;;;;;;4972028;28;20483;-76
2022/10/22 01:25:25;;;;;;;1.25;1.05;;;12.30;99.90;;;;;;4972435;28;20035;-76
2022/10/22 01:28:09;;;;;;;0.85;0.85;;;12.20;99.90;;;;;;4971777;28;20049;-76
2022/10/22 01:30:36;;;;;;;0.60;0.60;;;12.20;99.90;;;;;;4971928;28;20190;-76
2022/10/22 01:33:06;;;;;;;0.98;0.95;;;12.20;99.90;;;;;;4971738;28;20408;-76
2022/10/22 01:35:35;;;;;;;1.15;0.47;;;12.20;99.90;;;;;;4971698;28;20031;-76
2022/10/22 01:38:05;;;;;;;0.30;0.30;;;12.20;99.90;;;;;;4972146;28;20038;-77
2022/10/22 01:40:31;;;;;;;0.30;0.30;;;12.10;99.90;;;;;;4971131;28;20506;-78
2022/10/22 01:43:03;;;;;;;2.92;0.55;;;12.20;99.90;;;;;;4970202;28;20023;-76
2022/10/22 01:45:35;;;;;;;0.32;0.32;;;12.20;99.90;;;;;;4970145;28;20097;-77
2022/10/22 01:48:04;;;;;;;0.30;0.22;;;12.20;99.90;;;;;;4969806;28;20091;-77
2022/10/22 01:51:03;;;;;;;1.08;0.30;;;12.10;99.90;;;;;;4969870;28;20030;-77
2022/10/22 01:54:05;;;;;;;0.22;0.22;;;12.20;99.90;;;;;;4969838;28;20262;-77
2022/10/22 01:56:35;;;;;;;0.35;0.13;;;12.10;99.90;;;;;;4967621;28;20531;-76
2022/10/22 01:59:06;;;;;;;;;;;12.10;99.90;;;;;;4970427;28;20117;-76
2022/10/22 02:01:50;;;;;;;7.65;0.63;;;12.20;99.90;;;;;;4969620;28;19910;-76
2022/10/22 02:04:18;;;;;;;0.22;0.20;;;12.20;99.90;;;;;;4969637;28;20023;-76
2022/10/22 02:06:46;;;;;;;0.20;0.20;;;12.20;99.90;;;;;;4968040;28;20077;-76
2022/10/22 02:09:16;;;;;;;0.30;0.30;;;12.20;99.90;;;;;;4969756;28;20035;-76
2022/10/22 02:11:44;;;;;;;0.32;0.32;;;12.30;99.90;;;;;;4971229;28;20081;-76
2022/10/22 02:14:11;;;;;;;0.20;0.20;;;12.20;99.90;;;;;;4971406;28;20118;-77
2022/10/22 02:16:41;;;;;;;4.50;0.20;;;12.30;99.90;;;;;;4971148;28;20030;-76
2022/10/22 02:19:18;;;;;;;0.20;0.20;;;12.30;99.90;;;;;;4971433;28;20563;-77
2022/10/22 02:21:44;;;;;;;0.17;0.17;;;12.30;99.90;;;;;;4973190;28;20051;-76
2022/10/22 02:24:11;;;;;;;0.45;0.45;;;12.30;99.90;;;;;;4975221;28;20050;-76
2022/10/22 02:26:57;;;;;;;2.80;0.63;;;12.30;99.90;;;;;;4975212;28;20029;-76
2022/10/22 02:29:34;;;;;;;0.35;0.35;;;12.40;99.90;;;;;;4975287;28;20268;-76
2022/10/22 02:32:02;;;;;;;0.68;0.60;;;12.50;99.90;;;;;;4975030;28;20033;-77
2022/10/22 02:34:30;;;;;;;0.25;0.25;;;12.40;99.90;;;;;;4975127;28;20039;-77
2022/10/22 02:36:57;;;;;;;0.85;0.35;;;12.30;99.90;;;;;;4975292;28;20019;-77
2022/10/22 02:39:24;;;;;;;0.30;0.30;;;12.20;99.90;;;;;;4973848;28;20035;-76
2022/10/22 02:41:49;;;;;;;1.58;0.30;;;12.30;99.90;;;;;;4974929;28;20061;-77
2022/10/22 02:44:19;;;;;;;1.33;0.43;;;12.30;99.90;;;;;;4974963;28;20058;-77
2022/10/22 02:46:44;;;;;;;;;;;12.30;99.90;;;;;;4975174;28;20221;-76
2022/10/22 02:49:10;;;;;;;0.20;0.20;;;12.20;99.90;;;;;;4975032;28;20057;-77
2022/10/22 02:51:36;;;;;;;1.45;0.63;;;12.20;99.90;;;;;;4975011;28;20023;-77
2022/10/22 02:54:02;;;;;;;1.13;0.73;;;12.20;99.90;;;;;;4974931;28;20408;-76
2022/10/22 02:56:27;;;;;;;0.77;0.30;;;12.20;99.90;;;;;;4974704;28;20019;-77
2022/10/22 02:58:53;;;;;;;0.30;0.30;;;12.20;99.90;;;;;;4974469;28;20035;-77
2022/10/22 03:01:19;;;;;;;8.63;0.45;;;12.30;99.90;;;;;;4974160;28;20026;-76
2022/10/22 03:03:44;;;;;;;0.38;0.38;;;12.30;99.90;;;;;;4974698;28;20031;-77
2022/10/22 03:06:10;;;;;;;1.17;0.47;;;12.30;99.90;;;;;;4974491;28;20105;-76
2022/10/22 03:08:36;;;;;;;0.75;0.75;;;12.30;99.90;;;;;;4974707;28;20472;-76
2022/10/22 03:11:01;;;;;;;1.95;0.30;;;12.40;99.90;;;;;;4974711;28;20098;-76
2022/10/22 03:13:27;;;;;;;0.30;0.30;;;12.30;99.90;;;;;;4974294;28;20022;-77
2022/10/22 03:15:53;;;;;;;0.80;0.32;;;12.30;99.90;;;;;;4974189;28;20038;-77
2022/10/22 03:18:19;;;;;;;0.50;0.50;;;;;;;;;;4974291;28;20022;-78
2022/10/22 03:20:44;;;;;;;1.23;0.30;;;12.30;99.90;;;;;;4974150;28;20065;-77
2022/10/22 03:23:12;;;;;;;0.30;0.30;;;12.30;99.90;;;;;;4988936;28;20132;-77
2022/10/22 03:25:43;;;;;;;0.50;0.43;;;12.30;99.90;;;;;;4974362;28;20038;-77
2022/10/22 03:28:12;;;;;;;0.30;0.30;;;12.30;99.90;;;;;;4974151;28;20027;-77
2022/10/22 03:30:38;;;;;;;1.00;0.75;;;;;;;;;;4973602;28;20030;-76
2022/10/22 03:33:03;;;;;;;0.30;0.30;;;12.30;99.90;;;;;;4973574;28;20499;-76
2022/10/22 03:35:30;;;;;;;2.05;0.70;;;12.20;99.90;;;;;;4973826;28;20031;-76
2022/10/22 03:37:58;;;;;;;0.52;0.40;;;12.20;99.90;;;;;;4973874;28;20015;-77
2022/10/22 03:40:24;;;;;;;0.25;0.20;;;12.20;99.90;;;;;;4974047;28;20384;-76
2022/10/22 03:42:49;;;;;;;1.83;0.40;;;12.20;99.90;;;;;;4973936;28;20034;-75
2022/10/22 03:45:15;;;;;;;0.88;0.55;;;12.20;99.90;;;;;;4973725;28;20022;-76
2022/10/22 03:47:41;;;;;;;1.40;0.30;;;12.10;99.90;;;;;;4974418;28;20114;-76
2022/10/22 03:50:07;;;;;;;0.47;0.47;;;12.10;99.90;;;;;;4973731;28;20554;-76
2022/10/22 03:52:38;;;;;;;1.33;0.55;;;12.10;99.90;;;;;;4973596;28;20030;-76
2022/10/22 03:55:05;;;;;;;1.17;0.30;;;12.10;99.90;;;;;;4973463;28;20492;-77
2022/10/22 03:57:30;;;;;;;0.28;0.28;;;12.00;99.90;;;;;;4973829;28;20023;-76
2022/10/22 03:59:56;;;;;;;0.22;0.15;;;12.10;99.90;;;;;;4973715;28;20030;-77
2022/10/22 04:02:22;;;;;;;0.65;0.30;;;12.00;99.90;;;;;;4973195;28;20168;-76
2022/10/22 04:04:47;;;;;;;0.20;0.20;;;12.00;99.90;;;;;;4988211;28;20051;-76
2022/10/22 04:07:13;;;;;;;0.40;0.40;;;12.00;99.90;;;;;;4973725;28;20037;-76
2022/10/22 04:09:39;;;;;;;0.43;0.43;;;11.90;99.90;;;;;;4973112;28;20093;-77
2022/10/22 04:12:06;;;;;;;0.50;0.50;;;11.90;99.90;;;;;;4973009;28;20051;-76
2022/10/22 04:14:33;;;;;;;0.15;0.15;;;11.80;99.90;;;;;;4972800;28;20391;-77
2022/10/22 04:16:58;;;;;;;0.40;0.40;;;11.80;99.90;;;;;;4972956;28;20062;-76
2022/10/22 04:19:24;;;;;;;12.82;0.50;;;11.80;99.90;;;;;;4973385;28;20031;-76
2022/10/22 04:21:50;;;;;;;2.30;0.45;;;11.80;99.90;;;;;;4973024;28;20065;-77
2022/10/22 04:24:15;;;;;;;2.13;1.02;;;11.70;99.90;;;;;;4972868;28;20027;-77
2022/10/22 04:26:41;;;;;;;0.40;0.30;;;11.80;99.90;;;;;;4972790;28;20099;-76
2022/10/22 04:29:08;;;;;;;2.17;0.68;;;11.70;99.90;;;;;;4972808;28;20031;-76
2022/10/22 04:31:34;;;;;;;0.30;0.30;;;11.70;99.90;;;;;;4972598;28;20066;-77
2022/10/22 04:34:00;;;;;;;0.57;0.40;;;11.70;99.90;;;;;;4972855;28;20073;-77
2022/10/22 04:36:28;;;;;;;0.75;0.70;;;11.70;99.90;;;;;;4973181;28;20126;-77
2022/10/22 04:38:59;;;;;;;3.72;0.80;;;11.70;99.90;;;;;;4972858;28;20077;-77
2022/10/22 04:41:36;;;;;;;0.40;0.40;;;11.00;99.90;;;;;;4972776;28;20590;-77
2022/10/22 04:44:03;;;;;;;0.40;0.40;;;11.70;99.90;;;;;;4972089;28;20031;-77
2022/10/22 04:46:30;;;;;;;0.80;0.77;;;11.70;99.90;;;;;;4971741;28;20474;-76
2022/10/22 04:48:56;;;;;;;5.10;0.70;;;11.70;99.90;;;;;;4972410;28;20423;-77
2022/10/22 04:51:23;;;;;;;3.05;0.70;;;11.70;99.90;;;;;;4972619;28;20023;-77
2022/10/22 04:53:49;;;;;;;2.13;0.57;;;11.70;99.90;;;;;;4972448;28;20062;-77
2022/10/22 04:56:24;;;;;;;0.63;0.50;;;11.80;99.90;;;;;;4972336;28;20058;-77
2022/10/22 04:58:54;;;;;;;1.08;0.50;;;11.90;99.90;;;;;;4972284;28;20023;-76
2022/10/22 05:01:31;;;;;;;6.10;0.75;;;11.90;99.90;;;;;;4972116;28;20480;-76
2022/10/22 05:03:59;;;;;;;1.00;0.55;;;11.90;99.90;;;;;;4972116;28;20070;-77
2022/10/22 05:06:26;;;;;;;1.63;1.00;;;11.90;99.90;;;;;;4972260;28;20380;-76
2022/10/22 05:08:55;;;;;;;0.88;0.75;;;11.90;99.90;;;;;;4972047;28;20074;-77
2022/10/22 05:11:23;;;;;;;1.77;0.60;;;11.80;99.90;;;;;;4972157;28;20030;-77
2022/10/22 05:13:49;;;;;;;0.77;0.77;;;;;;;;;;4972157;28;20097;-77
2022/10/22 05:16:15;;;;;;;0.95;0.70;;;11.80;99.90;;;;;;4971813;28;20114;-76
2022/10/22 05:18:42;;;;;;;0.65;0.65;;;11.70;99.90;;;;;;4972048;28;20019;-77
2022/10/22 05:21:14;;;;;;;1.63;0.77;;;11.80;99.90;;;;;;4971771;28;20094;-77
2022/10/22 05:23:40;;;;;;;1.10;0.95;;;;;;;;;;4971818;28;20019;-76
2022/10/22 05:26:08;;;;;;;1.65;1.25;;;11.80;99.90;;;;;;4971825;28;20259;-77
2022/10/22 05:28:34;;;;;;;6.32;0.80;;;11.80;99.90;;;;;;4970434;28;20074;-77
2022/10/22 05:31:00;;;;;;;0.70;0.70;;;11.80;99.90;;;;;;4972037;28;20041;-77
2022/10/22 05:33:28;;;;;;;3.38;1.08;;;11.70;99.90;;;;;;4970279;28;20372;-77
2022/10/22 05:35:54;;;;;;;1.40;1.30;;;11.70;99.90;;;;;;4971776;28;20023;-77
2022/10/22 05:38:20;;;;;;;3.67;2.83;;;11.70;99.90;;;;;;4971697;28;20034;-77
2022/10/22 05:40:46;;;;;;;1.25;0.55;;;11.70;99.90;;;;;;4971578;28;20487;-77
2022/10/22 05:43:12;;;;;;;3.60;1.20;;;11.60;99.90;;;;;;4971928;28;20027;-77
2022/10/22 05:45:39;;;;;;;1.92;0.60;;;11.70;99.90;;;;;;4985903;28;20399;-76
2022/10/22 05:48:07;;;;;;;1.90;0.80;;;11.60;99.90;;;;;;4987258;28;20027;-77
2022/10/22 05:50:36;;;;;;;0.75;0.75;;;11.60;99.90;;;;;;4989330;28;20148;-77
2022/10/22 05:53:03;;;;;;;0.82;0.82;;;11.50;99.90;;;;;;4990666;28;20025;-77
2022/10/22 05:55:29;;;;;;;3.70;0.82;;;11.50;99.90;;;;;;4990696;28;20030;-77
2022/10/22 05:57:55;;;;;;;6.97;0.80;;;;;;;;;;4990773;28;20356;-77
2022/10/22 06:00:21;;;;;;;0.70;0.63;;;11.40;99.90;;;;;;4990792;28;20038;-76
2022/10/22 06:02:50;;;;;;;1.63;1.13;;;11.50;99.90;;;;;;4990702;28;20077;-76
2022/10/22 06:05:19;;;;;;;2.80;1.58;;;13.50;99.90;;;;;;4990531;28;20513;-77
2022/10/22 06:07:45;;;;;;;0.63;0.60;;;11.50;99.90;;;;;;4989557;28;20093;-76
2022/10/22 06:10:17;;;;;;;1.00;0.88;;;11.50;99.90;;;;;;4990418;28;20043;-77
2022/10/22 06:12:43;;;;;;;1.70;0.90;;;11.60;99.90;;;;;;4991006;28;20034;-77
2022/10/22 06:15:11;;;;;;;1.23;0.73;;;11.40;99.90;;;;;;4990471;28;20027;-77
2022/10/22 06:17:37;;;;;;;2.97;1.75;;;11.40;99.90;;;;;;4990987;28;20026;-76
2022/10/22 06:20:03;;;;;;;1.58;1.48;;;11.30;99.90;;;;;;4990255;28;20539;-77
2022/10/22 06:22:29;;;;;;;1.90;1.33;;;11.30;99.90;;;;;;4990428;28;20030;-77
2022/10/22 06:24:54;;;;;;;1.65;1.17;;;11.30;99.90;;;;;;4990645;28;20419;-77
2022/10/22 06:27:20;;;;;;;1.70;0.73;;;11.30;99.90;;;;;;4990979;28;20031;-78
2022/10/22 06:29:47;;;;;;;1.58;1.38;;;11.30;99.90;;;;;;4993519;28;20038;-77
2022/10/22 06:32:13;;;;;;;2.20;1.60;;;11.30;99.90;;;;;;4994259;28;20491;-78
2022/10/22 06:34:38;;;;;;;2.63;1.55;;;11.30;99.90;;;;;;4995460;28;20042;-77
2022/10/22 06:37:04;;;;;;;1.73;1.58;;;11.30;99.90;;;;;;4976958;28;20150;-78
2022/10/22 06:39:30;;;;;;;3.05;2.65;;;11.30;99.90;;;;;;4976084;28;20479;-76
2022/10/22 06:41:55;;;;;;;1.33;1.23;;;11.20;99.90;;;;;;4971239;28;20371;-77
2022/10/22 06:44:21;;;;;;;2.20;1.67;;;11.10;99.90;;;;;;4971010;28;20476;-76
2022/10/22 06:46:51;;;;;;;3.88;1.13;;;11.10;99.90;;;;;;4971167;28;20027;-77
2022/10/22 06:49:17;;;;;;;0.85;0.75;;;11.10;99.90;;;;;;4974828;28;20331;-77
2022/10/22 06:51:43;;;;;;;5.03;1.95;;;11.10;99.90;;;;;;4971194;28;20037;-77
2022/10/22 06:54:10;;;;;;;1.88;1.35;;;11.10;99.90;;;;;;4970940;28;20038;-76
2022/10/22 06:56:36;;;;;;;2.20;1.05;;;11.10;99.90;;;;;;4971838;28;20102;-77
2022/10/22 06:59:02;;;;;;;12.45;6.53;;;11.10;99.90;;;;;;4977136;28;20019;-76
2022/10/22 07:01:30;;;;;;;3.30;1.73;;;11.10;99.90;;;;;;4969108;28;20023;-76
2022/10/22 07:03:57;;;;;;;2.73;1.03;;;11.10;99.90;;;;;;4969324;28;20447;-76
2022/10/22 07:06:23;;;;;;;2.10;1.83;;;11.10;99.90;;;;;;4969607;28;20030;-76
2022/10/22 07:08:50;;;;;;;1.60;1.50;;;11.30;99.90;;;;;;4971021;28;20105;-77
2022/10/22 07:11:40;;;;;;;1.85;1.35;;;11.30;99.90;;;;;;4972679;28;20501;-76
2022/10/22 07:14:05;;;;;;;3.13;2.38;;;11.40;99.90;;;;;;4972024;28;20039;-77
2022/10/22 07:16:31;;;;;;;1.48;1.10;;;11.40;99.90;;;;;;4972473;28;20027;-76
2022/10/22 07:18:57;;;;;;;0.80;0.77;;;11.50;99.90;;;;;;4971350;28;20022;-77
2022/10/22 07:21:24;;;;;;;0.80;0.80;;;11.70;99.90;;;;;;4972348;28;20050;-76
2022/10/22 07:23:50;;;;;;;6.68;3.95;;;9.90;99.90;;;;;;4972695;28;20062;-77
2022/10/22 07:26:19;;;;;;;1.70;1.00;;;11.80;99.90;;;;;;4973000;28;20034;-77
2022/10/22 07:28:44;;;;;;;1.17;0.88;;;11.80;99.90;;;;;;4972378;28;20034;-76
2022/10/22 07:31:15;;;;;;;4.05;2.50;;;11.80;99.90;;;;;;4972493;28;20734;-76
2022/10/22 07:33:41;;;;;;;2.83;1.52;;;;;;;;;;4972638;28;20019;-76
2022/10/22 07:36:10;;;;;;;4.13;2.45;;;11.90;99.90;;;;;;4974088;28;20030;-76
2022/10/22 07:38:36;;;;;;;3.55;2.20;;;;;;;;;;4974063;28;20058;-76
2022/10/22 07:41:02;;;;;;;3.80;1.30;;;11.80;99.90;;;;;;4974042;28;20392;-77
2022/10/22 07:43:28;;;;;;;2.10;1.45;;;11.90;99.90;;;;;;4974057;28;20038;-77
2022/10/22 07:45:56;;;;;;;17.83;7.97;;;12.00;99.90;;;;;;4972543;28;20018;-76
2022/10/22 07:48:23;;;;;;;14.00;8.32;;;12.10;99.90;;;;;;4988584;28;20031;-76
2022/10/22 07:50:50;;;;;;;1.48;1.38;;;12.10;99.90;;;;;;4973464;28;20034;-76
2022/10/22 07:53:15;;;;;;;3.00;2.35;;;12.20;99.90;;;;;;4973241;28;20031;-76
2022/10/22 07:55:41;;;;;;;8.05;5.47;;;12.30;99.90;;;;;;4973702;28;20111;-76
2022/10/22 07:58:10;;;;;;;3.88;3.55;;;12.50;99.90;;;;;;4971743;28;20030;-76
2022/10/22 08:00:36;;;;;;;12.02;5.45;;;12.70;99.90;;;;;;4973340;28;20022;-76
2022/10/22 08:03:02;;;;;;;11.00;3.20;;;12.80;99.90;;;;;;4973618;28;20026;-76
2022/10/22 08:05:28;;;;;;;2.90;2.70;;;13.00;99.90;;;;;;4973740;28;20102;-76
2022/10/22 08:07:53;;;;;;;2.10;1.92;;;13.10;99.90;;;;;;4973218;28;20027;-77
2022/10/22 08:10:19;;;;;;;7.43;2.58;;;13.20;99.90;;;;;;4971821;28;20060;-76
2022/10/22 08:12:45;;;;;;;16.65;7.32;;;13.30;99.90;;;;;;4973199;28;20027;-77
2022/10/22 08:15:10;;;;;;;1.88;1.70;;;13.40;99.90;;;;;;4972450;28;20027;-75
2022/10/22 08:17:36;;;;;;;4.15;1.70;;;13.40;99.90;;;;;;4972546;28;20464;-76
2022/10/22 08:20:02;;;;;;;1.30;1.20;;;13.50;99.90;;;;;;4972278;28;20103;-76
2022/10/22 08:22:28;;;;;;;1.67;1.30;;;13.50;99.90;;;;;;4972567;28;20062;-76
2022/10/22 08:24:54;;;;;;;0.68;0.60;;;13.60;99.90;;;;;;4973157;28;20035;-76
2022/10/22 08:27:19;;;;;;;1.13;1.13;;;13.80;99.90;;;;;;4987880;28;20023;-76
2022/10/22 08:29:45;;;;;;;0.80;0.80;;;;;;;;;;4973506;28;20089;-76
2022/10/22 08:32:11;;;;;;;0.98;0.93;;;14.00;99.90;;;;;;4972968;28;20033;-76
2022/10/22 08:34:37;;;;;;;1.08;1.08;;;14.00;99.90;;;;;;4973216;28;20031;-76
2022/10/22 08:37:04;;;;;;;0.70;0.68;;;14.00;99.90;;;;;;4972672;28;20097;-76
2022/10/22 08:39:30;;;;;;;1.65;1.30;;;14.10;99.90;;;;;;4973115;28;20027;-76
2022/10/22 08:42:30;;;;;;;1.70;1.42;;;14.10;99.90;;;;;;4972707;28;20419;-76
2022/10/22 08:45:53;;;;;;;3.67;0.95;;;14.30;99.90;;;;;;4972547;28;20546;-76
2022/10/22 08:48:45;;;;;;;5.82;3.92;;;14.30;99.90;;;;;;4912586;29;20075;-77
2022/10/22 08:51:17;;;;;;;5.53;2.50;;;14.40;99.90;;;;;;4912733;29;20033;-76
2022/10/22 08:54:15;;;;;;;5.35;3.58;;;14.40;99.90;;;;;;4961489;28;20077;-76
2022/10/22 08:56:45;;;;;;;8.43;1.20;;;14.60;99.90;;;;;;4987603;28;20058;-76
2022/10/22 08:59:20;;;;;;;;;;;14.70;99.90;;;;;;4973005;28;20030;-76
2022/10/22 09:01:49;;;;;;;1.35;0.68;;;14.70;99.90;;;;;;4972272;28;20282;-77
2022/10/22 09:04:29;;;;;;;7.25;1.23;;;14.70;99.90;;;;;;4972634;28;20086;-77
2022/10/22 09:06:58;;;;;;;0.88;0.80;;;14.80;99.90;;;;;;4972357;28;20031;-76
2022/10/22 09:09:28;;;;;;;0.93;0.93;;;14.80;99.90;;;;;;4971885;28;20038;-77
2022/10/22 09:11:56;;;;;;;3.80;1.20;;;14.80;99.90;;;;;;4970734;28;20646;-76
2022/10/22 09:14:24;;;;;;;1.00;0.90;;;14.80;99.90;;;;;;4971909;28;20102;-76
2022/10/22 09:17:27;;;;;;;2.03;1.00;;;14.90;99.90;;;;;;4971551;28;20127;-78
2022/10/22 09:20:19;;;;;;;6.30;1.17;;;14.90;99.90;;;;;;4971695;28;20045;-76
2022/10/22 09:23:14;;;;;;;2.80;1.02;;;15.10;99.90;;;;;;4972040;28;20065;-76
2022/10/22 09:25:41;;;;;;;0.88;0.88;;;15.20;99.90;;;;;;4972170;28;20058;-77
2022/10/22 09:28:08;;;;;;;0.93;0.70;;;15.30;99.90;;;;;;4971819;28;20027;-76
2022/10/22 09:30:36;;;;;;;6.22;1.00;;;15.30;99.90;;;;;;4971075;28;20113;-76
2022/10/22 09:33:11;;;;;;;1.40;0.68;;;15.30;99.90;;;;;;4972601;28;20030;-78
2022/10/22 09:35:44;;;;;;;1.02;0.73;;;15.30;99.90;;;;;;4971867;28;20502;-77
2022/10/22 09:38:13;;;;;;;1.25;1.05;;;15.40;99.90;;;;;;4986325;28;20114;-77
2022/10/22 09:40:50;;;;;;;0.77;0.77;;;15.40;99.90;;;;;;4972010;28;20026;-76
2022/10/22 09:43:17;;;;;;;3.92;1.60;;;15.50;99.90;;;;;;4971668;28;20459;-76
2022/10/22 09:45:44;;;;;;;1.50;0.82;;;15.60;99.90;;;;;;4971323;28;20023;-76
2022/10/22 09:48:26;;;;;;;1.10;1.00;;;15.70;99.90;;;;;;4971226;28;20034;-76
2022/10/22 09:51:18;;;;;;;4.82;1.00;;;15.80;99.90;;;;;;4970261;28;20513;-76
2022/10/22 09:53:58;;;;;;;0.90;0.55;;;15.90;99.90;;;;;;4971459;28;20417;-76
2022/10/22 09:56:26;;;;;;;2.83;1.05;;;16.00;99.90;;;;;;4971435;28;20152;-76
2022/10/22 09:58:54;;;;;;;1.98;1.15;;;16.10;99.90;;;;;;4971521;28;20536;-75
2022/10/22 10:01:28;;;;;;;1.40;0.90;;;16.20;99.90;;;;;;4971121;28;20034;-76
2022/10/22 10:04:03;;;;;;;2.47;0.90;;;16.30;99.90;;;;;;4971560;28;20222;-76
2022/10/22 10:06:33;;;;;;;1.92;0.95;;;;;;;;;;4971466;28;20035;-76
2022/10/22 10:09:02;;;;;;;1.83;1.15;;;16.50;99.90;;;;;;4971754;28;20034;-76
2022/10/22 10:11:47;;;;;;;2.42;1.80;;;16.60;99.90;;;;;;4971412;28;20135;-76
2022/10/22 10:14:32;;;;;;;0.50;0.50;;;16.60;99.90;;;;;;4971491;28;20030;-76
2022/10/22 10:17:19;;;;;;;0.73;0.65;;;16.70;99.90;;;;;;4970832;28;20031;-77
2022/10/22 10:20:10;;;;;;;2.40;0.90;;;16.60;99.90;;;;;;4970812;28;20066;-76
2022/10/22 10:22:52;;;;;;;1.02;1.02;;;16.70;99.90;;;;;;4970846;28;20035;-77
2022/10/22 10:25:28;;;;;;;0.40;0.40;;;16.80;99.90;;;;;;4970811;28;20030;-76
2022/10/22 10:28:24;;;;;;;0.60;0.60;;;16.80;99.90;;;;;;4970860;28;20030;-77
2022/10/22 10:31:14;;;;;;;0.43;0.43;;;16.80;99.90;;;;;;4970563;28;20039;-76
2022/10/22 10:33:39;;;;;;;0.82;0.50;;;16.80;99.90;;;;;;4960082;28;20038;-77
2022/10/22 10:36:37;;;;;;;5.18;2.42;;;17.00;99.90;;;;;;4970595;28;20107;-78
2022/10/22 10:39:16;;;;;;;0.65;0.65;;;17.10;99.90;;;;;;4937034;28;20038;-78
2022/10/22 10:41:54;;;;;;;3.20;0.73;;;17.20;99.90;;;;;;4970418;28;20058;-76
2022/10/22 10:44:38;;;;;;;0.50;0.43;;;17.40;99.90;;;;;;4974051;28;20026;-76
2022/10/22 10:47:57;;;;;;;0.40;0.40;;;17.40;99.90;;;;;;4974380;28;20081;-76
2022/10/22 10:50:54;;;;;;;3.58;0.28;;;17.40;99.90;;;;;;4914196;29;20359;-78
2022/10/22 10:53:49;;;;;;;0.75;0.35;;;17.40;99.90;;;;;;4974018;28;20562;-77
2022/10/22 10:56:21;;;;;;;0.28;0.28;;;17.30;99.90;;;;;;4973039;28;20054;-75
2022/10/22 10:58:49;;;;;;;2.75;0.52;;;17.30;99.90;;;;;;4974245;28;20126;-77
2022/10/22 11:01:28;;;;;;;1.08;0.73;;;17.30;99.90;;;;;;4974427;28;20038;-76
2022/10/22 11:04:09;;;;;;;1.60;1.10;;;17.40;99.90;;;;;;4974136;28;20372;-76
2022/10/22 11:06:38;;;;;;;3.40;1.15;;;17.70;99.90;;;;;;4974026;28;20023;-76
2022/10/22 11:09:31;;;;;;;1.20;0.73;;;17.80;99.90;;;;;;4972569;28;20031;-78
2022/10/22 11:12:01;;;;;;;0.52;0.40;;;18.00;99.90;;;;;;4972458;28;20031;-76
2022/10/22 11:14:36;;;;;;;3.17;0.73;;;18.20;99.90;;;;;;4972552;28;20031;-78
2022/10/22 11:17:11;;;;;;;0.30;0.30;;;18.30;99.90;;;;;;4972462;28;20030;-78
2022/10/22 11:19:49;;;;;;;0.40;0.30;;;18.30;99.90;;;;;;4974286;28;20041;-77
2022/10/22 11:22:34;;;;;;;0.30;0.30;;;18.40;99.90;;;;;;4974060;28;20035;-76
2022/10/22 11:25:12;;;;;;;1.35;0.75;;;18.20;99.90;;;;;;4973914;28;20026;-75
2022/10/22 11:28:07;;;;;;;0.90;0.38;;;18.10;99.90;;;;;;4973647;28;20081;-76
2022/10/22 11:30:35;;;;;;;2.08;0.50;;;18.10;99.90;;;;;;4973822;28;20038;-76
2022/10/22 11:33:10;;;;;;;1.00;0.45;;;18.10;99.90;;;;;;4973631;28;20015;-74
2022/10/22 11:35:42;;;;;;;0.30;0.30;;;18.20;99.90;;;;;;4973527;28;20057;-78
2022/10/22 11:38:14;;;;;;;0.20;0.20;;;18.20;99.90;;;;;;4973649;28;20074;-75
2022/10/22 11:41:04;;;;;;;1.42;0.90;;;18.30;99.90;;;;;;4973621;28;20027;-75
2022/10/22 11:43:36;;;;;;;1.45;0.63;;;18.40;99.90;;;;;;4973307;28;20034;-78
2022/10/22 11:46:14;;;;;;;2.95;0.80;;;18.40;99.90;;;;;;4973145;28;20031;-78
2022/10/22 11:48:40;;;;;;;0.28;0.28;;;18.40;99.90;;;;;;4973338;28;20054;-75
2022/10/22 11:51:32;;;;;;;0.20;0.20;;;18.50;99.90;;;;;;4973443;28;20023;-75
2022/10/22 11:54:01;;;;;;;0.38;0.38;;;18.60;99.90;;;;;;4973468;28;20097;-75
2022/10/22 11:56:38;;;;;;;0.50;0.50;;;18.70;99.90;;;;;;4973205;28;20499;-75
2022/10/22 11:59:27;;;;;;;1.73;0.40;;;18.80;99.90;;;;;;4973187;28;20042;-76
2022/10/22 12:01:54;;;;;;;0.77;0.77;;;18.90;99.90;;;;;;4972682;28;20034;-76
2022/10/22 12:04:22;;;;;;;0.47;0.40;;;18.90;99.90;;;;;;4972945;28;20392;-76
2022/10/22 12:07:01;;;;;;;4.18;0.40;;;19.00;99.90;;;;;;4971734;28;20054;-77
2022/10/22 12:09:29;;;;;;;;;;;19.00;99.90;;;;;;4973414;28;20037;-77
2022/10/22 12:12:11;;;;;;;0.35;0.25;;;19.10;99.90;;;;;;4973195;28;19936;-76
2022/10/22 12:14:58;;;;;;;1.85;1.23;;;19.40;99.90;;;;;;4973320;28;20019;-76
2022/10/22 12:17:24;;;;;;;3.53;1.00;;;19.40;99.90;;;;;;4972822;28;20031;-75
2022/10/22 12:19:54;;;;;;;2.00;0.77;;;19.60;99.90;;;;;;4972566;28;20019;-76
2022/10/22 12:22:28;;;;;;;1.45;0.30;;;20.10;99.90;;;;;;4973074;28;20058;-76
2022/10/22 12:24:59;;;;;;;0.32;0.32;;;20.50;99.90;;;;;;4971248;28;20058;-76
2022/10/22 12:27:39;;;;;;;0.10;0.10;;;21.80;99.90;;;;;;4972569;28;20023;-76
2022/10/22 12:30:26;;;;;;;1.85;0.77;;;23.70;99.90;;;;;;4972311;28;20373;-76
2022/10/22 12:33:00;;;;;;;0.30;0.20;;;25.00;97.70;;;;;;4972729;28;20019;-76
2022/10/22 12:35:28;;;;;;;0.47;0.30;;;26.10;87.90;;;;;;4972940;28;20031;-76
2022/10/22 12:37:56;;;;;;;1.15;0.25;;;27.30;77.30;;;;;;4987368;28;20031;-75
2022/10/22 12:40:34;;;;;;;0.30;0.30;;;28.20;69.40;;;;;;4972544;28;20034;-77
2022/10/22 12:43:24;;;;;;;1.27;0.30;;;28.90;66.70;;;;;;4972209;28;20731;-77
2022/10/22 12:45:50;;;;;;;4.28;0.60;;;30.00;61.20;;;;;;4972056;28;20043;-79
2022/10/22 12:48:29;;;;;;;0.32;0.25;;;29.40;60.70;;;;;;4972455;28;20471;-78
2022/10/22 12:50:58;;;;;;;0.10;0.10;;;28.50;61.10;;;;;;4972340;28;20034;-77
2022/10/22 12:53:30;;;;;;;0.40;0.40;;;27.70;64.20;;;;;;4972445;28;20419;-76
2022/10/22 12:56:00;;;;;;;0.52;0.52;;;27.90;64.10;;;;;;4972211;28;20027;-78
2022/10/22 12:58:30;;;;;;;4.03;0.40;;;29.00;61.40;;;;;;4971947;28;20106;-77
2022/10/22 13:01:00;;;;;;;0.17;0.10;;;29.40;60.30;;;;;;4971733;28;20027;-76
2022/10/22 13:03:31;;;;;;;0.32;0.30;;;29.90;58.60;;;;;;4972278;28;20429;-76
2022/10/22 13:06:19;;;;;;;0.82;0.30;;;29.80;57.00;;;;;;4971638;28;20019;-75
2022/10/22 13:09:00;;;;;;;0.10;0.10;;;29.70;57.80;;;;;;4971968;28;20031;-76
2022/10/22 13:11:48;;;;;;;0.30;0.30;;;29.40;58.20;;;;;;4972014;28;20395;-77